Time;durP1;ratioP1;P1;durP2;ratioP2;P2;SDS_P1;SDS_P2;PMS_P1;PMS_P2;Temp;Humidity;BMP_temperature;BMP_pressure;BME280_temperature;BME280_humidity;BME280_pressure;Samples;Min_cycle;Max_cycle;Signal;HPM_P1;HPM_P2
2024/03/29 01:43:08;;;;;;;1.30;1.03;;;4.40;99.90;;;;;;5015639;28;20226;-78
2024/03/29 01:45:36;;;;;;;1.95;1.42;;;4.40;99.90;;;;;;5033905;28;20459;-78
2024/03/29 01:48:03;;;;;;;1.50;0.90;;;4.40;99.90;;;;;;5033490;28;20214;-78
2024/03/29 01:50:30;;;;;;;1.98;1.35;;;4.40;99.90;;;;;;5033258;28;20679;-78
2024/03/29 01:52:58;;;;;;;1.20;1.10;;;4.40;99.90;;;;;;5032986;28;20230;-78
2024/03/29 01:55:26;;;;;;;1.40;1.20;;;4.40;99.90;;;;;;5033870;28;20599;-78
2024/03/29 01:57:54;;;;;;;2.88;1.15;;;4.40;99.90;;;;;;5032975;28;20204;-78
2024/03/29 02:00:21;;;;;;;2.65;0.98;;;4.40;99.90;;;;;;5033152;28;20220;-78
2024/03/29 02:02:48;;;;;;;1.75;1.20;;;4.50;99.90;;;;;;5033156;28;20601;-78
2024/03/29 02:05:15;;;;;;;1.10;1.00;;;4.60;99.90;;;;;;5033324;28;20235;-78
2024/03/29 02:07:42;;;;;;;2.33;1.58;;;4.70;99.90;;;;;;5034481;28;20202;-78
2024/03/29 02:10:12;;;;;;;1.58;1.10;;;4.70;99.90;;;;;;5035037;28;20206;-78
2024/03/29 02:12:39;;;;;;;2.35;1.50;;;4.70;99.90;;;;;;5034524;28;20517;-78
2024/03/29 02:15:06;;;;;;;1.10;1.00;;;4.80;99.90;;;;;;5034567;28;20210;-78
2024/03/29 02:17:33;;;;;;;1.40;1.30;;;4.80;99.90;;;;;;5034273;28;20215;-78
2024/03/29 02:20:00;;;;;;;1.65;1.23;;;4.80;99.90;;;;;;5035106;28;20576;-78
2024/03/29 02:22:30;;;;;;;1.02;0.93;;;4.90;99.90;;;;;;5034332;28;20225;-78
2024/03/29 02:24:58;;;;;;;1.30;1.20;;;4.80;99.90;;;;;;5034438;28;20209;-78
2024/03/29 02:27:25;;;;;;;1.63;1.30;;;4.80;99.90;;;;;;5046825;28;20214;-78
2024/03/29 02:30:07;;;;;;;1.83;1.63;;;4.80;99.90;;;;;;5048149;28;20405;-78
2024/03/29 02:32:34;;;;;;;1.10;1.00;;;4.80;99.90;;;;;;5047633;28;20225;-78
2024/03/29 02:35:01;;;;;;;1.77;1.67;;;4.90;99.90;;;;;;5046802;28;20214;-78
2024/03/29 02:37:27;;;;;;;1.38;1.27;;;4.90;99.90;;;;;;5043000;28;20216;-78
2024/03/29 02:39:54;;;;;;;1.60;1.23;;;4.90;99.90;;;;;;5048945;28;20201;-78
2024/03/29 02:42:22;;;;;;;1.38;1.15;;;4.90;99.90;;;;;;5034245;28;20233;-78
2024/03/29 02:44:49;;;;;;;1.95;1.00;;;5.00;99.90;;;;;;5039192;28;20219;-78
2024/03/29 02:47:15;;;;;;;2.35;0.95;;;5.00;99.90;;;;;;5039061;28;20213;-78
2024/03/29 02:49:41;;;;;;;1.52;1.20;;;5.00;99.90;;;;;;5033195;28;20208;-78
2024/03/29 02:52:08;;;;;;;1.30;1.10;;;5.10;99.90;;;;;;5032437;28;20222;-78
2024/03/29 02:54:34;;;;;;;1.65;1.33;;;5.20;99.90;;;;;;5032461;28;20213;-78
2024/03/29 02:57:00;;;;;;;1.40;0.83;;;5.20;99.90;;;;;;5032959;28;20212;-78
2024/03/29 02:59:28;;;;;;;1.02;0.93;;;5.30;99.90;;;;;;5032338;28;20209;-78
2024/03/29 03:01:54;;;;;;;0.80;0.70;;;5.40;99.90;;;;;;5032545;28;20297;-78
2024/03/29 03:04:20;;;;;;;1.00;0.90;;;5.50;99.90;;;;;;5032459;28;20221;-78
2024/03/29 03:06:47;;;;;;;1.23;1.13;;;5.70;99.90;;;;;;5032568;28;20202;-78
2024/03/29 03:11:59;;;;;;;1.10;0.90;;;5.90;99.90;;;;;;5036533;28;20271;-78
2024/03/29 03:14:25;;;;;;;1.20;1.00;;;6.10;99.90;;;;;;5036011;28;20233;-79
2024/03/29 03:16:52;;;;;;;2.10;1.10;;;6.10;99.90;;;;;;5036572;28;20209;-78
2024/03/29 03:19:19;;;;;;;0.90;0.70;;;6.10;99.90;;;;;;5036327;28;20203;-79
2024/03/29 03:21:45;;;;;;;1.05;0.95;;;6.20;99.90;;;;;;5036562;28;20210;-78
2024/03/29 03:24:12;;;;;;;2.03;0.80;;;6.40;99.90;;;;;;5036104;28;20225;-78
2024/03/29 03:26:38;;;;;;;1.15;0.80;;;6.60;99.90;;;;;;5036109;28;20441;-78
2024/03/29 03:29:05;;;;;;;1.00;0.83;;;6.70;99.90;;;;;;5036047;28;20247;-78
2024/03/29 03:31:30;;;;;;;1.05;0.80;;;6.70;99.90;;;;;;5035813;28;20216;-78
2024/03/29 03:33:58;;;;;;;1.10;1.00;;;6.70;99.90;;;;;;5035564;28;20247;-78
2024/03/29 03:36:24;;;;;;;1.27;1.10;;;6.70;99.90;;;;;;5035633;28;20672;-78
2024/03/29 03:38:51;;;;;;;1.17;1.07;;;6.70;99.90;;;;;;5035638;28;20204;-78
2024/03/29 03:41:17;;;;;;;1.63;1.00;;;6.70;99.90;;;;;;5036147;28;20677;-78
2024/03/29 03:43:43;;;;;;;1.10;0.83;;;6.70;99.90;;;;;;5036765;28;20229;-78
2024/03/29 03:46:09;;;;;;;1.50;0.90;;;6.70;99.90;;;;;;5037164;28;20665;-78
2024/03/29 03:48:36;;;;;;;1.07;0.90;;;6.80;99.90;;;;;;5035691;28;20204;-78
2024/03/29 03:51:03;;;;;;;0.80;0.70;;;6.80;99.90;;;;;;5035580;28;20704;-78
2024/03/29 03:53:30;;;;;;;1.98;1.45;;;6.80;99.90;;;;;;5035282;28;20325;-78
2024/03/29 03:55:55;;;;;;;2.22;0.98;;;6.80;99.90;;;;;;5035825;28;20218;-78
2024/03/29 03:58:22;;;;;;;1.43;0.90;;;6.80;99.90;;;;;;5035858;28;20213;-78
2024/03/29 04:00:48;;;;;;;1.15;0.80;;;6.80;99.90;;;;;;5035803;28;20687;-78
2024/03/29 04:03:15;;;;;;;1.10;0.90;;;6.90;99.90;;;;;;5035024;28;20225;-78
2024/03/29 04:05:40;;;;;;;1.00;0.85;;;6.90;99.90;;;;;;5035685;28;20217;-78
2024/03/29 04:08:08;;;;;;;1.37;0.90;;;6.90;99.90;;;;;;5035134;28;20697;-78
2024/03/29 04:10:38;;;;;;;1.20;0.80;;;6.90;99.90;;;;;;5035668;28;20581;-78
2024/03/29 04:13:05;;;;;;;1.33;0.98;;;6.90;99.90;;;;;;5034749;28;20231;-78
2024/03/29 04:15:32;;;;;;;1.00;0.80;;;6.90;99.90;;;;;;5035675;28;20588;-78
2024/03/29 04:18:00;;;;;;;1.25;0.80;;;6.90;99.90;;;;;;5035368;28;20305;-78
2024/03/29 04:20:26;;;;;;;1.13;1.02;;;6.80;99.90;;;;;;5034456;28;20585;-78
2024/03/29 04:22:52;;;;;;;1.20;1.10;;;6.70;99.90;;;;;;5034833;28;20224;-79
2024/03/29 04:25:20;;;;;;;1.20;1.10;;;6.70;99.90;;;;;;5034828;28;20212;-78
2024/03/29 04:27:46;;;;;;;1.27;1.17;;;6.60;99.90;;;;;;5035362;28;20283;-78
2024/03/29 04:30:12;;;;;;;0.80;0.70;;;6.50;99.90;;;;;;5035408;28;20215;-78
2024/03/29 04:32:39;;;;;;;1.60;0.97;;;6.50;99.90;;;;;;5034144;28;20590;-78
2024/03/29 04:35:06;;;;;;;1.00;0.90;;;6.40;99.90;;;;;;5034975;28;20465;-78
2024/03/29 04:37:32;;;;;;;1.08;0.73;;;6.40;99.90;;;;;;5034686;28;20286;-78
2024/03/29 04:39:59;;;;;;;0.80;0.65;;;6.50;99.90;;;;;;5035005;28;20217;-78
2024/03/29 04:42:27;;;;;;;3.60;1.38;;;6.50;99.90;;;;;;5034430;28;20238;-78
2024/03/29 04:44:54;;;;;;;0.85;0.75;;;6.60;99.90;;;;;;5035018;28;20594;-77
2024/03/29 04:47:20;;;;;;;1.50;0.95;;;6.70;99.90;;;;;;5035157;28;20225;-77
2024/03/29 04:49:47;;;;;;;0.82;0.70;;;6.70;99.90;;;;;;5036845;28;20209;-77
2024/03/29 04:52:14;;;;;;;1.05;0.82;;;6.80;99.90;;;;;;5036334;28;20236;-78
2024/03/29 04:54:41;;;;;;;1.48;0.90;;;6.90;99.90;;;;;;5036610;28;20708;-77
2024/03/29 04:57:08;;;;;;;0.90;0.70;;;6.90;99.90;;;;;;5036493;28;20217;-77
2024/03/29 04:59:36;;;;;;;1.45;0.70;;;7.00;99.90;;;;;;5035677;28;20236;-78
2024/03/29 05:02:03;;;;;;;0.80;0.60;;;7.00;99.90;;;;;;5035553;28;20231;-77
2024/03/29 05:04:30;;;;;;;1.20;0.88;;;7.00;99.90;;;;;;5034972;28;20207;-78
2024/03/29 05:06:58;;;;;;;1.50;0.80;;;7.00;99.90;;;;;;5036090;28;20608;-78
2024/03/29 05:09:25;;;;;;;2.80;1.20;;;7.00;99.90;;;;;;5035539;28;20645;-78
2024/03/29 05:11:52;;;;;;;2.13;1.25;;;7.00;99.90;;;;;;5035546;28;20216;-78
2024/03/29 05:14:22;;;;;;;0.80;0.80;;;7.00;99.90;;;;;;5037017;28;20238;-78
2024/03/29 05:16:51;;;;;;;1.00;0.90;;;6.90;99.90;;;;;;5037111;28;20287;-78
2024/03/29 05:19:18;;;;;;;1.40;0.90;;;6.90;99.90;;;;;;5036047;28;20208;-77
2024/03/29 05:21:44;;;;;;;0.90;0.80;;;6.90;99.90;;;;;;5032384;28;20613;-77
2024/03/29 05:24:11;;;;;;;0.80;0.70;;;6.90;99.90;;;;;;5054394;28;20219;-78
2024/03/29 05:26:38;;;;;;;1.00;0.90;;;6.90;99.90;;;;;;5055369;28;20263;-78
2024/03/29 05:29:05;;;;;;;1.30;0.90;;;6.90;99.90;;;;;;5055225;28;20678;-78
2024/03/29 05:31:32;;;;;;;1.45;1.13;;;6.90;99.90;;;;;;5054702;28;20210;-78
2024/03/29 05:34:01;;;;;;;0.90;0.70;;;7.00;99.90;;;;;;5054656;28;20700;-78
2024/03/29 05:36:28;;;;;;;1.70;1.60;;;7.10;99.90;;;;;;5054435;28;20212;-78
2024/03/29 05:38:55;;;;;;;1.30;0.80;;;7.20;99.90;;;;;;5055581;28;20218;-78
2024/03/29 05:41:22;;;;;;;0.90;0.80;;;7.30;99.90;;;;;;5054568;28;20206;-78
2024/03/29 05:43:48;;;;;;;0.80;0.80;;;7.30;99.90;;;;;;5054384;28;20233;-78
2024/03/29 05:46:17;;;;;;;1.33;0.80;;;7.40;99.90;;;;;;5054778;28;20214;-78
2024/03/29 05:48:44;;;;;;;1.00;0.80;;;7.40;99.90;;;;;;5054406;28;20274;-78
2024/03/29 05:51:12;;;;;;;0.80;0.80;;;7.40;99.90;;;;;;5055027;28;20206;-78
2024/03/29 05:53:38;;;;;;;1.83;1.00;;;7.50;99.90;;;;;;5054153;28;20315;-77
2024/03/29 05:56:06;;;;;;;2.92;1.00;;;7.60;99.90;;;;;;5054604;28;20209;-78
2024/03/29 05:58:33;;;;;;;0.90;0.80;;;7.70;99.90;;;;;;5054706;28;20203;-78
2024/03/29 06:01:00;;;;;;;1.25;1.00;;;7.80;99.90;;;;;;5054194;28;20203;-78
2024/03/29 06:03:27;;;;;;;0.98;0.82;;;7.90;99.90;;;;;;5053730;28;20219;-78
2024/03/29 06:05:54;;;;;;;0.80;0.70;;;8.00;99.90;;;;;;5054687;28;20227;-77
2024/03/29 06:08:23;;;;;;;0.90;0.70;;;8.00;99.90;;;;;;5054505;28;20211;-78
2024/03/29 06:10:52;;;;;;;2.10;0.88;;;8.00;99.90;;;;;;5053752;28;20212;-78
2024/03/29 06:13:29;;;;;;;0.90;0.80;;;8.10;99.90;;;;;;5054122;28;20239;-78
2024/03/29 06:18:40;;;;;;;1.33;1.00;;;8.20;99.90;;;;;;5054393;28;20257;-78
2024/03/29 06:21:07;;;;;;;1.10;0.85;;;8.30;99.90;;;;;;5053747;28;20700;-78
2024/03/29 06:23:35;;;;;;;1.10;0.70;;;8.30;99.90;;;;;;5053594;28;20238;-78
2024/03/29 06:26:02;;;;;;;0.85;0.80;;;8.30;99.90;;;;;;5054249;28;20210;-78
2024/03/29 06:28:29;;;;;;;2.10;0.80;;;8.30;99.90;;;;;;5054716;28;20242;-78
2024/03/29 06:30:55;;;;;;;1.00;0.82;;;8.40;99.90;;;;;;5053623;28;20219;-78
2024/03/29 06:33:22;;;;;;;1.10;0.80;;;8.40;99.90;;;;;;5053703;28;20260;-77
2024/03/29 06:35:54;;;;;;;0.88;0.80;;;8.40;99.90;;;;;;5053625;28;20213;-78
2024/03/29 06:38:21;;;;;;;1.15;1.05;;;8.40;99.90;;;;;;5053926;28;20213;-78
2024/03/29 06:40:49;;;;;;;0.90;0.70;;;8.50;99.90;;;;;;5053795;28;20269;-78
2024/03/29 06:43:16;;;;;;;0.90;0.70;;;8.60;99.90;;;;;;5053221;28;20224;-78
2024/03/29 06:45:44;;;;;;;1.15;0.90;;;8.70;99.90;;;;;;5054749;28;20222;-78
2024/03/29 06:48:10;;;;;;;1.63;0.93;;;8.80;99.90;;;;;;5055993;28;20630;-78
2024/03/29 06:50:37;;;;;;;2.05;0.93;;;8.90;99.90;;;;;;5055274;28;20653;-78
2024/03/29 06:53:04;;;;;;;0.80;0.70;;;8.90;99.90;;;;;;5054980;28;20653;-78
2024/03/29 06:55:32;;;;;;;1.27;0.70;;;9.00;99.90;;;;;;5054028;28;20216;-78
2024/03/29 06:58:00;;;;;;;1.10;0.93;;;9.00;99.90;;;;;;5053579;28;20216;-78
2024/03/29 07:00:26;;;;;;;1.17;1.08;;;9.00;99.90;;;;;;5053136;28;20472;-78
2024/03/29 07:02:53;;;;;;;3.05;0.80;;;9.10;99.90;;;;;;5052986;28;20229;-78
2024/03/29 07:05:20;;;;;;;1.33;0.95;;;9.10;99.90;;;;;;5053835;28;20650;-78
2024/03/29 07:07:47;;;;;;;1.20;0.80;;;9.20;99.90;;;;;;5053951;28;20219;-78
2024/03/29 07:10:14;;;;;;;1.20;1.05;;;9.30;99.90;;;;;;5054034;28;20673;-78
2024/03/29 07:12:40;;;;;;;1.15;0.93;;;9.40;99.90;;;;;;5053672;28;20221;-78
2024/03/29 07:15:09;;;;;;;0.90;0.80;;;9.40;99.90;;;;;;5054958;28;20236;-78
2024/03/29 07:17:36;;;;;;;1.30;0.95;;;9.50;99.90;;;;;;5061268;28;20213;-78
2024/03/29 07:20:04;;;;;;;1.40;0.85;;;9.40;99.90;;;;;;5064678;28;20201;-77
2024/03/29 07:22:30;;;;;;;1.00;0.82;;;9.40;99.90;;;;;;5056957;28;20221;-76
2024/03/29 07:24:57;;;;;;;1.35;1.00;;;9.40;99.90;;;;;;5055479;28;20197;-76
2024/03/29 07:27:24;;;;;;;1.52;1.20;;;9.40;99.90;;;;;;5054288;28;20390;-76
2024/03/29 07:29:50;;;;;;;1.33;1.10;;;9.30;99.90;;;;;;5050392;28;20814;-75
2024/03/29 07:32:19;;;;;;;0.80;0.70;;;9.10;99.90;;;;;;5050740;28;20239;-75
2024/03/29 07:34:45;;;;;;;1.33;1.20;;;9.10;99.90;;;;;;5050090;28;20225;-75
2024/03/29 07:37:15;;;;;;;1.20;0.90;;;9.10;99.90;;;;;;5050661;28;20222;-74
2024/03/29 07:39:41;;;;;;;2.88;1.05;;;9.00;99.90;;;;;;5050384;28;20233;-75
2024/03/29 07:42:08;;;;;;;1.10;0.90;;;8.90;99.90;;;;;;5050676;28;20227;-75
2024/03/29 07:44:35;;;;;;;0.95;0.85;;;8.80;99.90;;;;;;5050064;28;20681;-75
2024/03/29 07:47:01;;;;;;;1.05;0.95;;;8.70;99.90;;;;;;5045642;28;20225;-75
2024/03/29 07:49:29;;;;;;;1.40;1.25;;;8.60;99.90;;;;;;5046704;28;20220;-75
2024/03/29 07:51:56;;;;;;;0.90;0.80;;;8.50;99.90;;;;;;5046974;28;20568;-75
2024/03/29 07:54:23;;;;;;;1.52;1.42;;;8.40;99.90;;;;;;5046317;28;20232;-75
2024/03/29 07:56:49;;;;;;;1.20;1.05;;;8.20;99.90;;;;;;5050579;28;20214;-77
2024/03/29 07:59:19;;;;;;;1.05;0.95;;;8.00;99.90;;;;;;5052337;28;20689;-77
2024/03/29 08:01:46;;;;;;;1.30;1.20;;;7.90;99.90;;;;;;5051107;28;20209;-75
2024/03/29 08:04:13;;;;;;;1.17;1.08;;;7.90;99.90;;;;;;5050949;28;20220;-75
2024/03/29 08:06:41;;;;;;;1.45;1.30;;;7.90;99.90;;;;;;5051235;28;20212;-75
2024/03/29 08:09:09;;;;;;;1.40;1.20;;;8.00;99.90;;;;;;5050484;28;20820;-75
2024/03/29 08:11:36;;;;;;;1.10;1.00;;;8.10;99.90;;;;;;5050521;28;20215;-74
2024/03/29 08:14:03;;;;;;;1.30;1.10;;;8.10;99.90;;;;;;5050091;28;20224;-75
2024/03/29 08:16:29;;;;;;;1.27;1.10;;;8.20;99.90;;;;;;5049992;28;20209;-74
2024/03/29 08:18:56;;;;;;;1.55;1.00;;;8.20;99.90;;;;;;5049210;28;20219;-75
2024/03/29 08:21:23;;;;;;;1.92;1.25;;;8.30;99.90;;;;;;5032463;28;20215;-75
2024/03/29 08:23:51;;;;;;;2.45;0.90;;;8.20;99.90;;;;;;5030683;28;20514;-75
2024/03/29 08:26:18;;;;;;;1.30;1.13;;;8.20;99.90;;;;;;5030949;28;20582;-75
2024/03/29 08:28:46;;;;;;;1.30;1.00;;;8.30;99.90;;;;;;5030438;28;20216;-75
2024/03/29 08:31:12;;;;;;;1.00;0.90;;;8.30;99.90;;;;;;5033685;28;20224;-75
2024/03/29 08:33:39;;;;;;;1.23;1.00;;;8.30;99.90;;;;;;5034430;28;20233;-75
2024/03/29 08:36:08;;;;;;;1.10;0.88;;;8.30;99.90;;;;;;5032632;28;20235;-75
2024/03/29 08:38:35;;;;;;;1.00;0.90;;;8.30;99.90;;;;;;5043385;28;20731;-75
2024/03/29 08:41:03;;;;;;;2.22;1.02;;;8.40;99.90;;;;;;5053899;28;20232;-75
2024/03/29 08:43:30;;;;;;;1.13;1.00;;;8.40;99.90;;;;;;5040144;28;20226;-74
2024/03/29 08:45:56;;;;;;;2.20;1.85;;;8.40;99.90;;;;;;5034396;28;20600;-74
2024/03/29 08:48:24;;;;;;;2.05;1.85;;;8.50;99.90;;;;;;5034041;28;20237;-74
2024/03/29 08:50:50;;;;;;;2.35;1.90;;;8.50;99.90;;;;;;5034019;28;20213;-74
2024/03/29 08:53:17;;;;;;;1.63;1.52;;;8.60;99.90;;;;;;5033934;28;20226;-74
2024/03/29 08:55:46;;;;;;;1.90;1.60;;;8.60;99.90;;;;;;5034105;28;20241;-75
2024/03/29 08:58:14;;;;;;;1.60;1.50;;;8.60;99.90;;;;;;5034031;28;20628;-75
2024/03/29 09:00:41;;;;;;;2.45;1.45;;;8.70;99.90;;;;;;5032548;28;20238;-74
2024/03/29 09:03:08;;;;;;;2.55;1.42;;;8.70;99.90;;;;;;5053337;28;20236;-75
2024/03/29 09:05:35;;;;;;;1.67;1.35;;;8.80;99.90;;;;;;5053440;28;20228;-75
2024/03/29 09:08:01;;;;;;;3.55;2.40;;;8.90;99.90;;;;;;5052370;28;20216;-74
2024/03/29 09:10:28;;;;;;;5.55;2.50;;;9.00;99.90;;;;;;5040012;28;20287;-74
2024/03/29 09:12:54;;;;;;;2.30;2.10;;;9.10;99.90;;;;;;5033175;28;20617;-74
2024/03/29 09:15:23;;;;;;;2.17;2.00;;;9.20;99.90;;;;;;5033865;28;20225;-75
2024/03/29 09:17:49;;;;;;;2.55;1.77;;;9.40;99.90;;;;;;5033663;28;20214;-74
2024/03/29 09:20:16;;;;;;;5.30;3.60;;;9.60;99.90;;;;;;5028664;28;20216;-74
2024/03/29 09:22:43;;;;;;;2.63;2.40;;;9.80;99.90;;;;;;5052889;28;20658;-74
2024/03/29 09:25:13;;;;;;;1.42;1.23;;;9.80;99.90;;;;;;5053344;28;20212;-74
2024/03/29 09:27:42;;;;;;;1.45;1.33;;;9.90;99.90;;;;;;5046390;28;20224;-75
2024/03/29 09:30:11;;;;;;;1.42;1.27;;;9.90;99.90;;;;;;5031638;28;20662;-74
2024/03/29 09:32:39;;;;;;;1.10;0.90;;;9.90;99.90;;;;;;5031097;28;20226;-75
2024/03/29 09:35:06;;;;;;;1.42;1.10;;;9.90;99.90;;;;;;5033007;28;20230;-74
2024/03/29 09:37:35;;;;;;;1.48;0.90;;;9.80;99.90;;;;;;5033268;28;20268;-75
2024/03/29 09:40:03;;;;;;;7.07;4.45;;;9.80;99.90;;;;;;5033058;28;20220;-75
2024/03/29 09:42:33;;;;;;;1.83;1.60;;;9.80;99.90;;;;;;5032777;28;20253;-75
2024/03/29 09:45:00;;;;;;;3.45;2.00;;;9.80;99.90;;;;;;5032973;28;20575;-74
2024/03/29 09:47:29;;;;;;;2.03;1.15;;;9.90;99.90;;;;;;5033059;28;20267;-74
2024/03/29 09:49:59;;;;;;;1.40;1.10;;;10.20;99.90;;;;;;5033050;28;20209;-75
2024/03/29 09:52:26;;;;;;;1.50;1.40;;;10.40;99.90;;;;;;5032608;28;20232;-74
2024/03/29 09:54:54;;;;;;;3.20;1.00;;;10.70;99.90;;;;;;5032449;28;20252;-74
2024/03/29 09:57:21;;;;;;;2.60;1.00;;;11.00;99.90;;;;;;5032581;28;20208;-75
2024/03/29 09:59:48;;;;;;;1.38;1.20;;;11.00;99.90;;;;;;5032487;28;20686;-74
2024/03/29 10:02:17;;;;;;;2.38;1.20;;;11.00;99.90;;;;;;5052370;28;20298;-75
2024/03/29 10:04:46;;;;;;;4.32;1.00;;;10.90;99.90;;;;;;5052345;28;20228;-75
2024/03/29 10:07:15;;;;;;;2.95;1.33;;;11.00;99.90;;;;;;5052451;28;20213;-74
2024/03/29 10:09:43;;;;;;;1.15;0.98;;;11.00;99.90;;;;;;5052506;28;20613;-75
2024/03/29 10:12:10;;;;;;;2.10;1.07;;;11.30;99.90;;;;;;5052003;28;20229;-74
2024/03/29 10:14:48;;;;;;;2.85;1.00;;;11.50;99.90;;;;;;5051702;28;20487;-74
2024/03/29 10:17:16;;;;;;;1.10;1.00;;;11.80;99.90;;;;;;5052388;28;20292;-74
2024/03/29 10:19:43;;;;;;;1.50;1.40;;;12.10;99.90;;;;;;5051697;28;20926;-75
2024/03/29 10:22:09;;;;;;;2.17;1.13;;;12.80;99.90;;;;;;5051920;28;20495;-74
2024/03/29 10:24:38;;;;;;;1.30;1.03;;;14.00;99.90;;;;;;5045307;28;20456;-75
2024/03/29 10:27:05;;;;;;;2.03;1.20;;;14.80;99.90;;;;;;5032119;28;20467;-75
2024/03/29 10:29:32;;;;;;;1.37;1.10;;;15.20;99.90;;;;;;5031875;28;20574;-75
2024/03/29 10:31:59;;;;;;;4.27;1.70;;;14.90;99.90;;;;;;5031647;28;20463;-77
2024/03/29 10:34:26;;;;;;;1.23;1.13;;;14.70;99.90;;;;;;5031579;28;20460;-75
2024/03/29 10:36:52;;;;;;;1.87;1.27;;;14.50;99.90;;;;;;5031545;28;20471;-74
2024/03/29 10:39:19;;;;;;;1.20;1.10;;;14.30;99.90;;;;;;5031386;28;20464;-74
2024/03/29 10:41:50;;;;;;;1.67;1.30;;;14.20;99.90;;;;;;5031677;28;20465;-74
2024/03/29 10:44:17;;;;;;;1.90;1.30;;;14.20;99.90;;;;;;5032193;28;20456;-75
2024/03/29 10:46:47;;;;;;;3.80;1.53;;;14.30;99.90;;;;;;5031939;28;20856;-74
2024/03/29 10:49:16;;;;;;;1.93;1.43;;;14.60;99.90;;;;;;5052211;28;20459;-74
2024/03/29 10:51:44;;;;;;;7.63;1.93;;;14.70;99.90;;;;;;5051766;28;20462;-76
2024/03/29 10:54:11;;;;;;;1.57;1.47;;;14.40;99.90;;;;;;5031250;28;20494;-76
2024/03/29 10:56:39;;;;;;;1.93;1.30;;;14.20;99.90;;;;;;5050768;28;20494;-75
2024/03/29 10:59:12;;;;;;;1.60;1.40;;;14.30;99.90;;;;;;5036547;28;20518;-74
2024/03/29 11:01:42;;;;;;;3.03;1.90;;;14.50;99.90;;;;;;5030682;28;20479;-74
2024/03/29 11:04:13;;;;;;;1.97;1.40;;;14.80;99.90;;;;;;5032619;28;20456;-74
2024/03/29 11:06:42;;;;;;;1.83;1.47;;;15.40;99.90;;;;;;5041727;28;20460;-74
2024/03/29 11:09:14;;;;;;;1.63;1.30;;;15.60;99.90;;;;;;5026677;28;20472;-74
2024/03/29 11:11:43;;;;;;;1.57;1.47;;;15.60;99.90;;;;;;5027322;28;20468;-75
2024/03/29 11:14:16;;;;;;;1.50;1.40;;;15.50;99.90;;;;;;5025905;28;20560;-75
2024/03/29 11:16:45;;;;;;;2.50;1.57;;;15.40;99.90;;;;;;5027634;28;20775;-75
2024/03/29 11:19:14;;;;;;;2.00;1.67;;;15.40;99.90;;;;;;5026502;28;20472;-74
2024/03/29 11:21:42;;;;;;;2.30;1.70;;;15.40;99.90;;;;;;5026700;28;21138;-75
2024/03/29 11:24:11;;;;;;;1.57;1.40;;;15.40;99.90;;;;;;5026552;28;20881;-75
2024/03/29 11:26:38;;;;;;;1.53;1.10;;;15.40;99.90;;;;;;5026914;28;20491;-74
2024/03/29 11:29:04;;;;;;;1.67;1.37;;;15.60;99.90;;;;;;5026758;28;20859;-74
2024/03/29 11:31:39;;;;;;;2.30;1.20;;;15.70;99.90;;;;;;5029020;28;20468;-75
2024/03/29 11:34:10;;;;;;;1.40;1.20;;;15.80;99.90;;;;;;5028172;28;20484;-75
2024/03/29 11:36:39;;;;;;;2.07;1.40;;;15.80;99.90;;;;;;5025670;28;20496;-75
2024/03/29 11:39:08;;;;;;;3.73;1.87;;;15.70;99.90;;;;;;5030086;28;20464;-75
2024/03/29 11:41:34;;;;;;;1.13;1.03;;;15.40;99.90;;;;;;5030611;28;20464;-75
2024/03/29 11:44:01;;;;;;;1.50;1.40;;;15.20;99.90;;;;;;5031975;28;20476;-75
2024/03/29 11:46:33;;;;;;;2.40;1.73;;;15.00;99.90;;;;;;5034258;28;20464;-75
2024/03/29 11:49:01;;;;;;;1.60;1.50;;;14.90;99.90;;;;;;5034238;28;20460;-75
2024/03/29 11:51:32;;;;;;;2.27;1.50;;;14.70;99.90;;;;;;5033364;28;20987;-75
2024/03/29 11:54:01;;;;;;;1.83;1.50;;;14.50;99.90;;;;;;5034209;28;20480;-75
2024/03/29 11:56:27;;;;;;;1.60;1.03;;;14.40;99.90;;;;;;5034697;28;20859;-75
2024/03/29 11:58:59;;;;;;;1.20;1.07;;;14.20;99.90;;;;;;5034487;28;20464;-74
2024/03/29 12:01:26;;;;;;;1.43;1.10;;;14.00;99.90;;;;;;5033954;28;20222;-75
2024/03/29 12:03:52;;;;;;;1.23;1.13;;;13.90;99.90;;;;;;5034259;28;20513;-75
2024/03/29 12:06:20;;;;;;;2.30;1.00;;;13.80;99.90;;;;;;5033996;28;20460;-75
2024/03/29 12:08:48;;;;;;;2.50;1.20;;;13.80;99.90;;;;;;5033681;28;20206;-75
2024/03/29 12:11:15;;;;;;;3.00;1.60;;;13.90;99.90;;;;;;5030682;28;21017;-75
2024/03/29 12:13:42;;;;;;;1.20;1.10;;;14.00;99.90;;;;;;5037805;28;20513;-75
2024/03/29 12:16:09;;;;;;;1.20;1.10;;;14.00;99.90;;;;;;5035254;28;20492;-75
2024/03/29 12:18:36;;;;;;;1.47;0.90;;;14.10;99.90;;;;;;5033839;28;20460;-75
2024/03/29 12:21:03;;;;;;;1.10;0.90;;;14.20;99.90;;;;;;5032514;28;20519;-76
2024/03/29 12:23:31;;;;;;;1.43;1.00;;;14.40;99.90;;;;;;5036742;28;20477;-74
2024/03/29 12:26:00;;;;;;;1.60;0.90;;;14.70;99.90;;;;;;5034528;28;20456;-74
2024/03/29 12:28:28;;;;;;;1.87;1.17;;;15.00;99.90;;;;;;5026612;28;20456;-76
2024/03/29 12:30:55;;;;;;;1.20;0.97;;;15.20;99.90;;;;;;5033269;28;20974;-75
2024/03/29 12:33:22;;;;;;;1.23;0.90;;;15.40;99.90;;;;;;5032356;28;20504;-77
2024/03/29 12:35:52;;;;;;;1.53;1.00;;;15.90;99.90;;;;;;5033746;28;20498;-76
2024/03/29 12:38:19;;;;;;;3.90;1.07;;;16.30;99.90;;;;;;5032565;28;20464;-74
2024/03/29 12:40:50;;;;;;;2.03;1.10;;;16.50;99.90;;;;;;5032544;28;20487;-74
2024/03/29 12:43:21;;;;;;;1.67;1.13;;;16.80;99.90;;;;;;5031842;28;20484;-75
2024/03/29 12:45:47;;;;;;;1.53;1.27;;;17.00;99.90;;;;;;5033051;28;20465;-75
2024/03/29 12:48:16;;;;;;;1.03;0.83;;;17.50;99.90;;;;;;5031991;28;20468;-74
2024/03/29 12:50:44;;;;;;;1.10;1.00;;;18.20;99.90;;;;;;5032775;28;20487;-74
2024/03/29 12:53:12;;;;;;;1.83;1.50;;;18.60;99.90;;;;;;5028024;28;20484;-74
2024/03/29 12:55:44;;;;;;;1.40;1.30;;;18.60;99.90;;;;;;5039725;28;20499;-74
2024/03/29 12:58:12;;;;;;;1.77;1.10;;;18.10;99.90;;;;;;5037296;28;20465;-73
2024/03/29 13:00:40;;;;;;;1.03;0.93;;;17.70;99.90;;;;;;5032099;28;20961;-74
2024/03/29 13:03:07;;;;;;;1.10;0.90;;;17.50;99.90;;;;;;5028291;28;20480;-74
2024/03/29 13:05:37;;;;;;;1.10;0.87;;;17.40;99.90;;;;;;5032086;28;20465;-75
2024/03/29 13:08:05;;;;;;;1.30;1.20;;;17.50;99.90;;;;;;5032467;28;20460;-75
2024/03/29 13:10:32;;;;;;;1.33;1.23;;;18.20;99.90;;;;;;5032350;28;20471;-75
2024/03/29 13:12:58;;;;;;;2.77;1.50;;;19.10;99.90;;;;;;5031834;28;20499;-75
2024/03/29 13:15:28;;;;;;;1.30;1.20;;;20.20;99.90;;;;;;5032004;28;20484;-75
2024/03/29 13:17:56;;;;;;;1.30;1.00;;;21.10;99.90;;;;;;5033178;28;20997;-76
2024/03/29 13:20:24;;;;;;;2.33;1.40;;;21.90;99.90;;;;;;5031601;28;20472;-76
2024/03/29 13:22:54;;;;;;;1.40;1.30;;;22.40;99.90;;;;;;5031974;28;20480;-75
2024/03/29 13:25:21;;;;;;;1.40;1.30;;;22.50;99.90;;;;;;5032446;28;20960;-76
2024/03/29 13:27:49;;;;;;;2.50;1.47;;;22.60;99.90;;;;;;5032670;28;20471;-75
2024/03/29 13:30:16;;;;;;;1.70;1.23;;;22.60;99.90;;;;;;5032621;28;20483;-74
2024/03/29 13:32:44;;;;;;;1.33;1.20;;;22.60;99.90;;;;;;5032005;28;20476;-74
2024/03/29 13:35:11;;;;;;;1.30;1.20;;;22.40;99.90;;;;;;5032158;28;20463;-77
2024/03/29 13:37:39;;;;;;;1.40;1.10;;;22.40;99.90;;;;;;5032398;28;20467;-76
2024/03/29 13:40:07;;;;;;;1.70;1.23;;;22.40;99.90;;;;;;5032218;28;20841;-76
2024/03/29 13:42:34;;;;;;;1.13;1.03;;;22.30;99.90;;;;;;5031550;28;20542;-75
2024/03/29 13:45:01;;;;;;;1.70;1.33;;;22.50;99.90;;;;;;5032025;28;20461;-76
2024/03/29 13:47:27;;;;;;;1.10;0.93;;;22.80;99.60;;;;;;5031988;28;20464;-76
2024/03/29 13:49:56;;;;;;;1.17;1.07;;;23.10;99.70;;;;;;5031985;28;20467;-76
2024/03/29 13:52:23;;;;;;;2.37;1.20;;;23.30;99.20;;;;;;5031659;28;20476;-76
2024/03/29 13:54:50;;;;;;;1.63;1.33;;;23.30;98.60;;;;;;5031340;28;20552;-75
2024/03/29 13:57:18;;;;;;;2.33;1.30;;;23.10;98.40;;;;;;5031747;28;21127;-76
2024/03/29 13:59:45;;;;;;;1.30;1.10;;;23.20;99.70;;;;;;5031998;28;20456;-76
2024/03/29 14:02:13;;;;;;;1.20;1.10;;;23.10;98.30;;;;;;5031443;28;20568;-76
2024/03/29 14:04:39;;;;;;;1.20;1.10;;;23.10;97.70;;;;;;5031526;28;20915;-76
2024/03/29 14:07:08;;;;;;;1.30;1.10;;;23.00;98.20;;;;;;5031776;28;20539;-76
2024/03/29 14:09:35;;;;;;;2.10;1.33;;;23.00;98.30;;;;;;5031544;28;20464;-76
2024/03/29 14:12:03;;;;;;;1.20;1.10;;;22.80;98.70;;;;;;5031311;28;20472;-76
2024/03/29 14:14:29;;;;;;;1.30;1.20;;;22.80;97.80;;;;;;5031397;28;20543;-76
2024/03/29 14:16:56;;;;;;;1.20;1.00;;;22.50;98.40;;;;;;5031576;28;20520;-75
2024/03/29 14:19:23;;;;;;;1.53;1.10;;;22.60;98.50;;;;;;5031301;28;20471;-76
2024/03/29 14:21:50;;;;;;;1.33;0.80;;;22.60;98.30;;;;;;5031632;28;20453;-75
2024/03/29 14:24:18;;;;;;;1.70;1.00;;;22.50;98.60;;;;;;5031291;28;20460;-75
2024/03/29 14:26:45;;;;;;;2.13;1.10;;;22.50;98.20;;;;;;5031574;28;20456;-75
2024/03/29 14:29:12;;;;;;;1.20;0.93;;;22.30;98.30;;;;;;5031102;28;20468;-75
2024/03/29 14:31:39;;;;;;;1.20;1.10;;;22.20;98.30;;;;;;5031132;28;20467;-74
2024/03/29 14:34:06;;;;;;;1.10;1.00;;;22.10;98.70;;;;;;5030935;28;20476;-74
2024/03/29 14:36:33;;;;;;;1.13;1.00;;;22.10;99.00;;;;;;5035081;28;20502;-74
2024/03/29 14:39:00;;;;;;;1.67;0.90;;;22.00;99.60;;;;;;5051212;28;20893;-73
2024/03/29 14:41:29;;;;;;;1.20;1.03;;;22.20;99.70;;;;;;5050825;28;20558;-76